createdAt,value
2019-02-21T00:00:25.747Z,1014.05
2019-02-21T00:01:25.742Z,1014.05
2019-02-21T00:02:25.738Z,1014.06
2019-02-21T00:03:25.729Z,1014.06
2019-02-21T00:04:25.720Z,1014.07
2019-02-21T00:05:25.715Z,1014.10
2019-02-21T00:06:25.709Z,1014.07
2019-02-21T00:07:25.705Z,1014.07
2019-02-21T00:08:25.696Z,1014.08
2019-02-21T00:09:25.690Z,1014.09
2019-02-21T00:10:25.686Z,1014.06
2019-02-21T00:11:25.679Z,1014.08
2019-02-21T00:12:25.671Z,1014.07
2019-02-21T00:13:25.663Z,1014.05
2019-02-21T00:14:25.659Z,1014.04
2019-02-21T00:15:25.652Z,1014.10
2019-02-21T00:16:25.659Z,1014.07
2019-02-21T00:17:25.639Z,1014.10
2019-02-21T00:18:25.633Z,1014.05
2019-02-21T00:19:25.627Z,1014.11
2019-02-21T00:20:25.618Z,1014.16
2019-02-21T00:21:25.615Z,1014.17
2019-02-21T00:22:25.609Z,1014.16
2019-02-21T00:23:25.601Z,1014.16
2019-02-21T00:24:25.596Z,1014.14
2019-02-21T00:25:25.588Z,1014.15
2019-02-21T00:26:25.582Z,1014.16
2019-02-21T00:27:25.575Z,1014.13
2019-02-21T00:28:25.570Z,1014.12
2019-02-21T00:29:25.565Z,1014.11
2019-02-21T00:30:34.913Z,1014.08
2019-02-21T00:31:25.551Z,1014.05
2019-02-21T00:32:25.549Z,1014.04
2019-02-21T00:33:25.540Z,1014.05
2019-02-21T00:34:25.540Z,1014.01
2019-02-21T00:35:25.524Z,1014.04
2019-02-21T00:36:25.517Z,1014.03
2019-02-21T00:37:25.510Z,1014.04
2019-02-21T00:38:25.509Z,1014.09
2019-02-21T00:39:25.501Z,1014.06
2019-02-21T00:40:25.491Z,1014.05
2019-02-21T00:41:25.485Z,1014.06
2019-02-21T00:42:25.479Z,1013.98
2019-02-21T00:43:25.476Z,1014.00
2019-02-21T00:44:25.465Z,1014.00
2019-02-21T00:45:25.460Z,1014.02
2019-02-21T00:46:25.452Z,1014.03
2019-02-21T00:47:25.448Z,1014.05
2019-02-21T00:48:25.441Z,1014.08
2019-02-21T00:49:25.433Z,1014.09
2019-02-21T00:50:25.427Z,1014.07
2019-02-21T00:51:25.433Z,1014.08
2019-02-21T00:52:25.413Z,1014.07
2019-02-21T00:53:25.408Z,1014.10
2019-02-21T00:54:25.402Z,1014.14
2019-02-21T00:55:27.709Z,1014.15
2019-02-21T00:56:25.391Z,1014.13
2019-02-21T00:57:25.381Z,1014.15
2019-02-21T00:58:25.376Z,1014.09
2019-02-21T00:59:25.372Z,1014.12
2019-02-21T01:00:25.363Z,1014.09
2019-02-21T01:01:25.360Z,1014.11
2019-02-21T01:02:25.350Z,1014.11
2019-02-21T01:03:25.344Z,1014.09
2019-02-21T01:04:25.338Z,1014.06
2019-02-21T01:05:25.329Z,1014.13
2019-02-21T01:06:25.323Z,1014.14
2019-02-21T01:07:25.318Z,1014.14
2019-02-21T01:08:25.309Z,1014.15
2019-02-21T01:09:25.305Z,1014.17
2019-02-21T01:10:25.299Z,1014.16
2019-02-21T01:11:25.292Z,1014.18
2019-02-21T01:12:25.285Z,1014.20
2019-02-21T01:13:25.277Z,1014.18
2019-02-21T01:14:25.334Z,1014.21
2019-02-21T01:15:25.264Z,1014.17
2019-02-21T01:16:25.258Z,1014.18
2019-02-21T01:17:25.250Z,1014.20
2019-02-21T01:18:25.246Z,1014.20
2019-02-21T01:19:25.238Z,1014.22
2019-02-21T01:20:25.231Z,1014.23
2019-02-21T01:21:25.224Z,1014.24
2019-02-21T01:22:25.217Z,1014.25
2019-02-21T01:23:25.215Z,1014.27
2019-02-21T01:24:25.232Z,1014.37
2019-02-21T01:25:25.205Z,1014.33
2019-02-21T01:26:25.192Z,1014.33
2019-02-21T01:27:25.186Z,1014.32
2019-02-21T01:28:25.178Z,1014.30
2019-02-21T01:29:25.172Z,1014.35
2019-02-21T01:30:25.164Z,1014.40
2019-02-21T01:31:25.157Z,1014.37
2019-02-21T01:32:25.150Z,1014.38
2019-02-21T01:33:25.143Z,1014.40
2019-02-21T01:34:25.142Z,1014.43
2019-02-21T01:35:25.130Z,1014.40
2019-02-21T01:36:25.124Z,1014.39
2019-02-21T01:37:25.117Z,1014.36
2019-02-21T01:38:25.110Z,1014.39
2019-02-21T01:39:25.104Z,1014.34
2019-02-21T01:40:25.095Z,1014.39
2019-02-21T01:41:25.089Z,1014.36
2019-02-21T01:42:25.083Z,1014.37
2019-02-21T01:43:25.075Z,1014.38
2019-02-21T01:44:25.066Z,1014.42
2019-02-21T01:45:25.063Z,1014.43
2019-02-21T01:46:25.054Z,1014.46
2019-02-21T01:47:25.048Z,1014.46
2019-02-21T01:48:25.042Z,1014.42
2019-02-21T01:49:25.032Z,1014.42
2019-02-21T01:50:25.027Z,1014.36
2019-02-21T01:51:25.020Z,1014.39
2019-02-21T01:52:25.011Z,1014.37
2019-02-21T01:53:25.004Z,1014.41
2019-02-21T01:54:24.997Z,1014.37
2019-02-21T01:55:24.990Z,1014.40
2019-02-21T01:56:24.983Z,1014.40
2019-02-21T01:57:24.976Z,1014.43
2019-02-21T01:58:24.971Z,1014.43
2019-02-21T01:59:24.963Z,1014.43
2019-02-21T02:00:24.956Z,1014.44
2019-02-21T02:01:24.954Z,1014.45
2019-02-21T02:02:24.941Z,1014.46
2019-02-21T02:03:24.934Z,1014.43
2019-02-21T02:04:24.927Z,1014.42
2019-02-21T02:05:24.918Z,1014.41
2019-02-21T02:06:24.915Z,1014.42
2019-02-21T02:07:24.904Z,1014.46
2019-02-21T02:08:24.896Z,1014.48
2019-02-21T02:09:24.889Z,1014.48
2019-02-21T02:10:24.882Z,1014.48
2019-02-21T02:11:24.875Z,1014.48
2019-02-21T02:12:24.868Z,1014.47
2019-02-21T02:13:25.088Z,1014.48
2019-02-21T02:14:24.857Z,1014.45
2019-02-21T02:15:24.847Z,1014.50
2019-02-21T02:16:24.839Z,1014.49
2019-02-21T02:17:24.831Z,1014.50
2019-02-21T02:18:24.825Z,1014.49
2019-02-21T02:19:24.818Z,1014.52
2019-02-21T02:20:24.810Z,1014.49
2019-02-21T02:21:24.802Z,1014.47
2019-02-21T02:22:24.795Z,1014.50
2019-02-21T02:23:24.789Z,1014.48
2019-02-21T02:24:24.783Z,1014.51
2019-02-21T02:25:24.773Z,1014.51
2019-02-21T02:26:24.769Z,1014.51
2019-02-21T02:27:24.760Z,1014.51
2019-02-21T02:28:24.758Z,1014.48
2019-02-21T02:29:24.785Z,1014.46
2019-02-21T02:30:24.849Z,1014.48
2019-02-21T02:31:24.734Z,1014.49
2019-02-21T02:32:24.725Z,1014.50
2019-02-21T02:33:24.718Z,1014.53
2019-02-21T02:34:24.713Z,1014.55
2019-02-21T02:35:24.716Z,1014.52
2019-02-21T02:36:24.695Z,1014.49
2019-02-21T02:37:24.689Z,1014.51
2019-02-21T02:38:24.684Z,1014.47
2019-02-21T02:39:24.676Z,1014.50
2019-02-21T02:40:24.668Z,1014.48
2019-02-21T02:41:24.661Z,1014.49
2019-02-21T02:42:24.657Z,1014.52
2019-02-21T02:43:24.649Z,1014.48
2019-02-21T02:44:24.640Z,1014.48
2019-02-21T02:45:24.636Z,1014.49
2019-02-21T02:46:24.629Z,1014.45
2019-02-21T02:47:24.621Z,1014.51
2019-02-21T02:48:24.615Z,1014.45
2019-02-21T02:49:24.615Z,1014.47
2019-02-21T02:50:24.600Z,1014.47
2019-02-21T02:51:24.596Z,1014.46
2019-02-21T02:52:24.611Z,1014.46
2019-02-21T02:53:24.579Z,1014.47
2019-02-21T02:54:24.572Z,1014.47
2019-02-21T02:55:24.566Z,1014.42
2019-02-21T02:56:24.558Z,1014.45
2019-02-21T02:57:24.552Z,1014.44
2019-02-21T02:58:24.547Z,1014.43
2019-02-21T02:59:24.539Z,1014.43
2019-02-21T03:00:24.531Z,1014.44
2019-02-21T03:01:34.333Z,1014.40
2019-02-21T03:02:24.519Z,1014.41
2019-02-21T03:03:24.513Z,1014.43
2019-02-21T03:04:24.536Z,1014.46
2019-02-21T03:05:24.500Z,1014.49
2019-02-21T03:06:24.493Z,1014.40
2019-02-21T03:07:24.494Z,1014.43
2019-02-21T03:08:24.477Z,1014.44
2019-02-21T03:09:24.475Z,1014.42
2019-02-21T03:10:24.464Z,1014.41
2019-02-21T03:11:24.459Z,1014.46
2019-02-21T03:12:24.453Z,1014.44
2019-02-21T03:13:24.444Z,1014.43
2019-02-21T03:14:24.439Z,1014.46
2019-02-21T03:15:24.432Z,1014.45
2019-02-21T03:16:24.432Z,1014.46
2019-02-21T03:17:24.431Z,1014.50
2019-02-21T03:18:24.412Z,1014.45
2019-02-21T03:19:24.405Z,1014.43
2019-02-21T03:20:24.400Z,1014.40
2019-02-21T03:21:24.391Z,1014.41
2019-02-21T03:22:24.385Z,1014.38
2019-02-21T03:23:24.381Z,1014.39
2019-02-21T03:24:24.371Z,1014.40
2019-02-21T03:25:24.367Z,1014.38
2019-02-21T03:26:24.360Z,1014.38
2019-02-21T03:27:24.353Z,1014.39
2019-02-21T03:28:24.345Z,1014.39
2019-02-21T03:29:24.339Z,1014.44
2019-02-21T03:30:24.334Z,1014.45
2019-02-21T03:31:24.327Z,1014.47
2019-02-21T03:32:24.324Z,1014.44
2019-02-21T03:33:24.313Z,1014.43
2019-02-21T03:34:24.310Z,1014.44
2019-02-21T03:35:24.308Z,1014.42
2019-02-21T03:36:24.316Z,1014.44
2019-02-21T03:37:24.288Z,1014.37
2019-02-21T03:38:24.283Z,1014.38
2019-02-21T03:39:24.274Z,1014.30
2019-02-21T03:40:24.275Z,1014.32
2019-02-21T03:41:24.262Z,1014.32
2019-02-21T03:42:24.253Z,1014.32
2019-02-21T03:43:24.253Z,1014.31
2019-02-21T03:44:24.240Z,1014.34
2019-02-21T03:45:24.232Z,1014.30
2019-02-21T03:46:24.227Z,1014.30
2019-02-21T03:47:24.221Z,1014.30
2019-02-21T03:48:24.214Z,1014.33
2019-02-21T03:49:24.207Z,1014.38
2019-02-21T03:50:24.200Z,1014.32
2019-02-21T03:51:24.199Z,1014.31
2019-02-21T03:52:24.187Z,1014.31
2019-02-21T03:53:24.179Z,1014.33
2019-02-21T03:54:24.175Z,1014.31
2019-02-21T03:55:24.167Z,1014.31
2019-02-21T03:56:24.160Z,1014.30
2019-02-21T03:57:24.154Z,1014.37
2019-02-21T03:58:24.147Z,1014.35
2019-02-21T03:59:24.142Z,1014.40
2019-02-21T04:00:24.136Z,1014.38
2019-02-21T04:01:24.126Z,1014.39
2019-02-21T04:02:24.122Z,1014.38
2019-02-21T04:03:24.113Z,1014.40
2019-02-21T04:04:24.109Z,1014.39
2019-02-21T04:05:24.099Z,1014.38
2019-02-21T04:06:24.095Z,1014.38
2019-02-21T04:07:24.089Z,1014.41
2019-02-21T04:08:24.081Z,1014.46
2019-02-21T04:09:24.076Z,1014.45
2019-02-21T04:10:24.067Z,1014.45
2019-02-21T04:11:24.060Z,1014.46
2019-02-21T04:12:24.054Z,1014.39
2019-02-21T04:13:24.048Z,1014.41
2019-02-21T04:14:24.047Z,1014.37
2019-02-21T04:15:24.034Z,1014.38
2019-02-21T04:16:24.026Z,1014.35
2019-02-21T04:17:24.022Z,1014.41
2019-02-21T04:18:24.014Z,1014.40
2019-02-21T04:19:24.007Z,1014.36
2019-02-21T04:20:24.012Z,1014.37
2019-02-21T04:21:23.999Z,1014.35
2019-02-21T04:22:23.988Z,1014.40
2019-02-21T04:23:23.980Z,1014.41
2019-02-21T04:24:23.977Z,1014.41
2019-02-21T04:25:23.967Z,1014.43
2019-02-21T04:26:23.961Z,1014.44
2019-02-21T04:27:23.955Z,1014.42
2019-02-21T04:28:23.946Z,1014.47
2019-02-21T04:29:23.938Z,1014.46
2019-02-21T04:30:23.934Z,1014.43
2019-02-21T04:31:23.925Z,1014.37
2019-02-21T04:32:23.918Z,1014.41
2019-02-21T04:33:23.912Z,1014.36
2019-02-21T04:34:23.906Z,1014.35
2019-02-21T04:35:23.900Z,1014.30
2019-02-21T04:36:23.901Z,1014.31
2019-02-21T04:37:23.888Z,1014.26
2019-02-21T04:38:23.879Z,1014.27
2019-02-21T04:39:23.872Z,1014.31
2019-02-21T04:40:23.865Z,1014.27
2019-02-21T04:41:23.858Z,1014.24
2019-02-21T04:42:23.853Z,1014.30
2019-02-21T04:43:23.845Z,1014.26
2019-02-21T04:44:23.841Z,1014.28
2019-02-21T04:45:23.831Z,1014.27
2019-02-21T04:46:23.824Z,1014.27
2019-02-21T04:47:23.817Z,1014.26
2019-02-21T04:48:23.822Z,1014.25
2019-02-21T04:49:23.805Z,1014.30
2019-02-21T04:50:23.797Z,1014.28
2019-02-21T04:51:23.791Z,1014.24
2019-02-21T04:52:23.797Z,1014.24
2019-02-21T04:53:23.780Z,1014.22
2019-02-21T04:54:23.770Z,1014.30
2019-02-21T04:55:23.764Z,1014.25
2019-02-21T04:56:23.757Z,1014.27
2019-02-21T04:57:23.748Z,1014.26
2019-02-21T04:58:23.743Z,1014.30
2019-02-21T04:59:23.737Z,1014.29
2019-02-21T05:00:23.729Z,1014.29
2019-02-21T05:01:23.721Z,1014.31
2019-02-21T05:02:29.201Z,1014.32
2019-02-21T05:03:23.710Z,1014.25
2019-02-21T05:04:23.702Z,1014.25
2019-02-21T05:05:23.727Z,1014.23
2019-02-21T05:06:23.688Z,1014.23
2019-02-21T05:07:23.683Z,1014.27
2019-02-21T05:08:23.675Z,1014.30
2019-02-21T05:09:23.668Z,1014.36
2019-02-21T05:10:23.663Z,1014.34
2019-02-21T05:11:23.656Z,1014.36
2019-02-21T05:12:23.646Z,1014.33
2019-02-21T05:13:23.640Z,1014.32
2019-02-21T05:14:23.641Z,1014.32
2019-02-21T05:15:23.627Z,1014.31
2019-02-21T05:16:23.620Z,1014.29
2019-02-21T05:17:23.614Z,1014.29
2019-02-21T05:18:23.607Z,1014.29
2019-02-21T05:19:23.599Z,1014.28
2019-02-21T05:20:23.594Z,1014.30
2019-02-21T05:21:23.589Z,1014.26
2019-02-21T05:22:23.580Z,1014.27
2019-02-21T05:23:23.573Z,1014.27
2019-02-21T05:24:23.566Z,1014.28
2019-02-21T05:25:23.558Z,1014.26
2019-02-21T05:26:23.632Z,1014.25
2019-02-21T05:27:23.545Z,1014.28
2019-02-21T05:28:23.539Z,1014.25
2019-02-21T05:29:23.531Z,1014.25
2019-02-21T05:30:23.523Z,1014.23
2019-02-21T05:31:23.523Z,1014.22
2019-02-21T05:32:23.511Z,1014.29
2019-02-21T05:33:23.502Z,1014.27
2019-02-21T05:34:23.496Z,1014.26
2019-02-21T05:35:23.498Z,1014.30
2019-02-21T05:36:23.482Z,1014.28
2019-02-21T05:37:23.477Z,1014.29
2019-02-21T05:38:23.469Z,1014.27
2019-02-21T05:39:23.463Z,1014.20
2019-02-21T05:40:23.455Z,1014.27
2019-02-21T05:41:23.448Z,1014.26
2019-02-21T05:42:23.444Z,1014.26
2019-02-21T05:43:23.433Z,1014.21
2019-02-21T05:44:23.426Z,1014.24
2019-02-21T05:45:23.419Z,1014.19
2019-02-21T05:46:23.416Z,1014.19
2019-02-21T05:47:23.405Z,1014.23
2019-02-21T05:48:23.397Z,1014.18
2019-02-21T05:49:23.392Z,1014.20
2019-02-21T05:50:23.403Z,1014.20
2019-02-21T05:51:23.378Z,1014.28
2019-02-21T05:52:23.370Z,1014.25
2019-02-21T05:53:23.362Z,1014.26
2019-02-21T05:54:23.357Z,1014.26
2019-02-21T05:55:23.349Z,1014.25
2019-02-21T05:56:23.342Z,1014.28
2019-02-21T05:57:23.334Z,1014.28
2019-02-21T05:58:23.328Z,1014.27
2019-02-21T05:59:23.322Z,1014.27
2019-02-21T06:00:23.312Z,1014.28
2019-02-21T06:01:23.305Z,1014.25
2019-02-21T06:02:23.302Z,1014.23
2019-02-21T06:03:23.292Z,1014.26
2019-02-21T06:04:23.287Z,1014.25
2019-02-21T06:05:23.279Z,1014.22
2019-02-21T06:06:23.270Z,1014.26
2019-02-21T06:07:23.264Z,1014.23
2019-02-21T06:08:23.255Z,1014.27
2019-02-21T06:09:23.248Z,1014.23
2019-02-21T06:10:23.243Z,1014.25
2019-02-21T06:11:23.236Z,1014.28
2019-02-21T06:12:33.058Z,1014.25
2019-02-21T06:13:23.220Z,1014.28
2019-02-21T06:14:23.214Z,1014.33
2019-02-21T06:15:23.236Z,1014.33
2019-02-21T06:16:23.197Z,1014.34
2019-02-21T06:17:23.190Z,1014.37
2019-02-21T06:18:23.183Z,1014.33
2019-02-21T06:19:23.178Z,1014.37
2019-02-21T06:20:23.169Z,1014.36
2019-02-21T06:21:23.163Z,1014.34
2019-02-21T06:22:23.155Z,1014.39
2019-02-21T06:23:24.979Z,1014.34
2019-02-21T06:24:23.141Z,1014.38
2019-02-21T06:25:23.133Z,1014.36
2019-02-21T06:26:23.125Z,1014.38
2019-02-21T06:27:23.119Z,1014.39
2019-02-21T06:28:23.110Z,1014.38
2019-02-21T06:29:23.109Z,1014.41
2019-02-21T06:30:23.096Z,1014.38
2019-02-21T06:31:23.089Z,1014.40
2019-02-21T06:32:23.081Z,1014.41
2019-02-21T06:33:23.075Z,1014.43
2019-02-21T06:34:23.068Z,1014.46
2019-02-21T06:35:23.061Z,1014.42
2019-02-21T06:36:23.052Z,1014.47
2019-02-21T06:37:23.044Z,1014.48
2019-02-21T06:38:23.038Z,1014.44
2019-02-21T06:39:24.986Z,1014.45
2019-02-21T06:40:23.043Z,1014.39
2019-02-21T06:41:23.014Z,1014.46
2019-02-21T06:42:23.008Z,1014.44
2019-02-21T06:43:23.005Z,1014.46
2019-02-21T06:44:22.994Z,1014.52
2019-02-21T06:45:22.999Z,1014.46
2019-02-21T06:46:22.978Z,1014.46
2019-02-21T06:47:22.972Z,1014.45
2019-02-21T06:48:22.965Z,1014.46
2019-02-21T06:49:32.130Z,1014.47
2019-02-21T06:50:26.727Z,1014.46
2019-02-21T06:51:22.940Z,1014.51
2019-02-21T06:52:22.933Z,1014.49
2019-02-21T06:53:22.926Z,1014.53
2019-02-21T06:54:22.919Z,1014.58
2019-02-21T06:55:22.911Z,1014.60
2019-02-21T06:56:22.903Z,1014.61
2019-02-21T06:57:22.897Z,1014.61
2019-02-21T06:58:22.889Z,1014.61
2019-02-21T06:59:23.740Z,1014.62
2019-02-21T07:00:22.874Z,1014.65
2019-02-21T07:01:26.997Z,1014.68
2019-02-21T07:02:22.862Z,1014.72
2019-02-21T07:03:22.851Z,1014.72
2019-02-21T07:04:22.846Z,1014.70
2019-02-21T07:05:22.836Z,1014.70
2019-02-21T07:06:31.589Z,1014.67
2019-02-21T07:07:22.821Z,1014.68
2019-02-21T07:08:25.083Z,1014.70
2019-02-21T07:09:22.806Z,1014.73
2019-02-21T07:10:22.799Z,1014.69
2019-02-21T07:11:24.722Z,1014.70
2019-02-21T07:12:22.783Z,1014.77
2019-02-21T07:13:26.667Z,1014.74
2019-02-21T07:14:22.786Z,1014.71
2019-02-21T07:15:22.762Z,1014.71
2019-02-21T07:16:22.755Z,1014.72
2019-02-21T07:17:22.745Z,1014.73
2019-02-21T07:18:22.742Z,1014.79
2019-02-21T07:19:22.749Z,1014.76
2019-02-21T07:20:22.724Z,1014.80
2019-02-21T07:21:22.717Z,1014.81
2019-02-21T07:22:22.729Z,1014.80
2019-02-21T07:23:22.703Z,1014.81
2019-02-21T07:24:22.695Z,1014.84
2019-02-21T07:25:22.687Z,1014.83
2019-02-21T07:26:22.680Z,1014.78
2019-02-21T07:27:22.673Z,1014.78
2019-02-21T07:28:22.665Z,1014.79
2019-02-21T07:29:22.663Z,1014.82
2019-02-21T07:30:23.211Z,1014.86
2019-02-21T07:31:28.703Z,1014.81
2019-02-21T07:32:22.637Z,1014.82
2019-02-21T07:33:28.337Z,1014.82
2019-02-21T07:34:22.624Z,1014.83
2019-02-21T07:35:22.616Z,1014.84
2019-02-21T07:36:22.608Z,1014.88
2019-02-21T07:37:22.602Z,1014.86
2019-02-21T07:38:22.598Z,1014.89
2019-02-21T07:39:22.607Z,1014.92
2019-02-21T07:40:22.581Z,1014.93
2019-02-21T07:41:22.574Z,1014.96
2019-02-21T07:42:22.570Z,1014.96
2019-02-21T07:43:24.854Z,1015.02
2019-02-21T07:44:22.552Z,1015.01
2019-02-21T07:45:22.548Z,1015.05
2019-02-21T07:46:22.573Z,1015.02
2019-02-21T07:47:22.534Z,1015.04
2019-02-21T07:48:22.523Z,1015.04
2019-02-21T07:49:22.523Z,1015.05
2019-02-21T07:50:23.131Z,1015.07
2019-02-21T07:51:22.506Z,1015.06
2019-02-21T07:52:22.499Z,1015.11
2019-02-21T07:53:22.492Z,1015.15
2019-02-21T07:54:22.487Z,1015.17
2019-02-21T07:55:22.479Z,1015.20
2019-02-21T07:56:22.475Z,1015.20
2019-02-21T07:57:22.466Z,1015.17
2019-02-21T07:58:22.462Z,1015.16
2019-02-21T07:59:22.451Z,1015.14
2019-02-21T08:00:22.450Z,1015.16
2019-02-21T08:01:22.438Z,1015.21
2019-02-21T08:02:22.432Z,1015.24
2019-02-21T08:03:30.263Z,1015.27
2019-02-21T08:04:22.494Z,1015.23
2019-02-21T08:05:23.711Z,1015.24
2019-02-21T08:06:22.407Z,1015.23
2019-02-21T08:07:22.399Z,1015.25
2019-02-21T08:08:22.394Z,1015.25
2019-02-21T08:09:22.388Z,1015.23
2019-02-21T08:10:32.806Z,1015.27
2019-02-21T08:11:22.374Z,1015.28
2019-02-21T08:12:23.286Z,1015.28
2019-02-21T08:13:22.361Z,1015.28
2019-02-21T08:14:22.354Z,1015.25
2019-02-21T08:15:22.349Z,1015.29
2019-02-21T08:16:22.342Z,1015.33
2019-02-21T08:17:22.337Z,1015.33
2019-02-21T08:18:22.328Z,1015.31
2019-02-21T08:19:22.324Z,1015.30
2019-02-21T08:20:33.235Z,1015.34
2019-02-21T08:21:22.310Z,1015.37
2019-02-21T08:22:22.305Z,1015.38
2019-02-21T08:23:22.299Z,1015.38
2019-02-21T08:24:22.291Z,1015.39
2019-02-21T08:25:22.290Z,1015.39
2019-02-21T08:26:22.352Z,1015.34
2019-02-21T08:27:22.275Z,1015.35
2019-02-21T08:28:22.268Z,1015.35
2019-02-21T08:29:22.262Z,1015.30
2019-02-21T08:30:22.256Z,1015.34
2019-02-21T08:31:22.250Z,1015.37
2019-02-21T08:32:22.244Z,1015.39
2019-02-21T08:33:22.239Z,1015.39
2019-02-21T08:34:22.232Z,1015.40
2019-02-21T08:35:22.228Z,1015.42
2019-02-21T08:36:22.220Z,1015.36
2019-02-21T08:37:22.214Z,1015.37
2019-02-21T08:38:22.209Z,1015.36
2019-02-21T08:39:22.204Z,1015.30
2019-02-21T08:40:24.913Z,1015.31
2019-02-21T08:41:22.191Z,1015.41
2019-02-21T08:42:22.187Z,1015.41
2019-02-21T08:43:22.178Z,1015.45
2019-02-21T08:44:22.175Z,1015.50
2019-02-21T08:45:22.170Z,1015.54
2019-02-21T08:46:22.162Z,1015.56
2019-02-21T08:47:22.157Z,1015.61
2019-02-21T08:48:22.152Z,1015.62
2019-02-21T08:49:22.145Z,1015.62
2019-02-21T08:50:22.464Z,1015.61
2019-02-21T08:51:22.133Z,1015.64
2019-02-21T08:52:22.128Z,1015.65
2019-02-21T08:53:22.122Z,1015.68
2019-02-21T08:54:22.117Z,1015.69
2019-02-21T08:55:22.116Z,1015.73
2019-02-21T08:56:22.106Z,1015.72
2019-02-21T08:57:22.104Z,1015.75
2019-02-21T08:58:22.096Z,1015.73
2019-02-21T08:59:22.091Z,1015.76
2019-02-21T09:00:22.090Z,1015.73
2019-02-21T09:01:22.082Z,1015.70
2019-02-21T09:02:22.074Z,1015.70
2019-02-21T09:03:22.070Z,1015.68
2019-02-21T09:04:27.298Z,1015.72
2019-02-21T09:05:22.058Z,1015.71
2019-02-21T09:06:24.477Z,1015.75
2019-02-21T09:07:22.048Z,1015.75
2019-02-21T09:08:32.673Z,1015.72
2019-02-21T09:09:22.038Z,1015.72
2019-02-21T09:10:22.033Z,1015.66
2019-02-21T09:11:22.032Z,1015.73
2019-02-21T09:12:22.023Z,1015.70
2019-02-21T09:13:23.887Z,1015.75
2019-02-21T09:14:22.011Z,1015.79
2019-02-21T09:15:22.005Z,1015.81
2019-02-21T09:16:21.999Z,1015.89
2019-02-21T09:17:22.087Z,1015.92
2019-02-21T09:18:21.992Z,1015.89
2019-02-21T09:19:21.985Z,1015.94
2019-02-21T09:20:21.977Z,1015.94
2019-02-21T09:21:21.975Z,1015.94
2019-02-21T09:22:21.968Z,1015.95
2019-02-21T09:23:21.964Z,1015.98
2019-02-21T09:24:37.876Z,1015.95
2019-02-21T09:25:21.952Z,1015.97
2019-02-21T09:26:21.952Z,1015.92
2019-02-21T09:27:21.943Z,1015.90
2019-02-21T09:28:21.937Z,1015.90
2019-02-21T09:29:21.932Z,1015.89
2019-02-21T09:30:21.935Z,1015.88
2019-02-21T09:31:21.924Z,1015.85
2019-02-21T09:32:21.982Z,1015.83
2019-02-21T09:33:21.969Z,1015.87
2019-02-21T09:34:21.909Z,1015.86
2019-02-21T09:35:21.905Z,1015.85
2019-02-21T09:36:21.900Z,1015.85
2019-02-21T09:37:21.895Z,1015.87
2019-02-21T09:38:21.889Z,1015.92
2019-02-21T09:39:21.884Z,1015.95
2019-02-21T09:40:21.879Z,1015.98
2019-02-21T09:41:21.872Z,1015.93
2019-02-21T09:42:21.868Z,1015.97
2019-02-21T09:43:21.863Z,1015.99
2019-02-21T09:44:21.858Z,1016.00
2019-02-21T09:45:21.854Z,1016.02
2019-02-21T09:46:21.850Z,1016.10
2019-02-21T09:47:21.848Z,1016.11
2019-02-21T09:48:21.838Z,1016.11
2019-02-21T09:49:21.834Z,1016.08
2019-02-21T09:50:21.830Z,1016.02
2019-02-21T09:51:21.826Z,1016.04
2019-02-21T09:52:21.819Z,1015.99
2019-02-21T09:53:21.816Z,1016.05
2019-02-21T09:54:21.810Z,1016.09
2019-02-21T09:55:21.809Z,1016.04
2019-02-21T09:56:29.857Z,1016.03
2019-02-21T09:57:21.799Z,1016.04
2019-02-21T09:58:21.794Z,1016.07
2019-02-21T09:59:21.792Z,1016.08
2019-02-21T10:00:21.783Z,1016.11
2019-02-21T10:01:21.781Z,1016.13
2019-02-21T10:02:23.161Z,1016.20
2019-02-21T10:03:21.770Z,1016.21
2019-02-21T10:04:31.577Z,1016.26
2019-02-21T10:05:21.761Z,1016.22
2019-02-21T10:06:21.757Z,1016.23
2019-02-21T10:07:21.753Z,1016.24
2019-02-21T10:08:22.066Z,1016.29
2019-02-21T10:09:21.746Z,1016.31
2019-02-21T10:10:21.741Z,1016.39
2019-02-21T10:11:21.737Z,1016.60
2019-02-21T10:12:21.731Z,1016.37
2019-02-21T10:13:21.727Z,1016.44
2019-02-21T10:14:21.740Z,1016.27
2019-02-21T10:15:21.720Z,1016.32
2019-02-21T10:16:21.715Z,1016.30
2019-02-21T10:17:21.712Z,1016.27
2019-02-21T10:18:21.709Z,1016.26
2019-02-21T10:19:21.708Z,1016.26
2019-02-21T10:20:21.742Z,1016.23
2019-02-21T10:21:21.701Z,1016.18
2019-02-21T10:22:21.695Z,1016.16
2019-02-21T10:23:24.170Z,1016.16
2019-02-21T10:24:21.688Z,1016.15
2019-02-21T10:25:23.116Z,1016.17
2019-02-21T10:26:21.683Z,1016.22
2019-02-21T10:27:21.680Z,1016.18
2019-02-21T10:28:21.675Z,1016.18
2019-02-21T10:29:21.672Z,1016.22
2019-02-21T10:30:21.668Z,1016.14
2019-02-21T10:31:21.666Z,1016.16
2019-02-21T10:32:21.682Z,1016.14
2019-02-21T10:33:21.667Z,1016.13
2019-02-21T10:34:21.951Z,1016.11
2019-02-21T10:35:21.653Z,1016.09
2019-02-21T10:36:21.648Z,1016.08
2019-02-21T10:37:21.644Z,1016.07
2019-02-21T10:38:21.642Z,1016.01
2019-02-21T10:39:21.644Z,1016.02
2019-02-21T10:40:21.635Z,1015.99
2019-02-21T10:41:21.633Z,1015.97
2019-02-21T10:42:21.628Z,1015.97
2019-02-21T10:43:21.625Z,1016.01
2019-02-21T10:44:21.632Z,1015.98
2019-02-21T10:45:21.629Z,1015.95
2019-02-21T10:46:21.618Z,1016.00
2019-02-21T10:47:21.610Z,1015.97
2019-02-21T10:48:21.607Z,1016.04
2019-02-21T10:49:21.605Z,1016.03
2019-02-21T10:50:21.608Z,1015.98
2019-02-21T10:51:21.599Z,1016.05
2019-02-21T10:52:21.594Z,1016.03
2019-02-21T10:53:21.595Z,1016.02
2019-02-21T10:54:21.586Z,1015.99
2019-02-21T10:55:21.585Z,1016.07
2019-02-21T10:56:21.580Z,1016.06
2019-02-21T10:57:21.578Z,1016.05
2019-02-21T10:58:21.576Z,1016.06
2019-02-21T10:59:21.573Z,1016.05
2019-02-21T11:00:21.568Z,1016.07
2019-02-21T11:01:21.565Z,1015.95
2019-02-21T11:02:21.563Z,1015.99
2019-02-21T11:03:21.560Z,1016.05
2019-02-21T11:04:21.556Z,1016.02
2019-02-21T11:05:21.554Z,1016.02
2019-02-21T11:06:21.561Z,1015.92
2019-02-21T11:07:21.548Z,1015.95
2019-02-21T11:08:21.544Z,1015.93
2019-02-21T11:09:21.544Z,1015.90
2019-02-21T11:10:21.556Z,1015.88
2019-02-21T11:11:21.538Z,1015.84
2019-02-21T11:12:21.533Z,1015.88
2019-02-21T11:13:21.531Z,1015.85
2019-02-21T11:14:21.529Z,1015.89
2019-02-21T11:15:21.526Z,1015.91
2019-02-21T11:16:21.521Z,1015.88
2019-02-21T11:17:21.520Z,1015.89
2019-02-21T11:18:21.521Z,1015.94
2019-02-21T11:19:21.516Z,1015.93
2019-02-21T11:20:21.513Z,1015.92
2019-02-21T11:21:21.512Z,1015.97
2019-02-21T11:22:21.514Z,1015.96
2019-02-21T11:23:21.505Z,1016.00
2019-02-21T11:24:21.499Z,1015.93
2019-02-21T11:25:21.499Z,1016.02
2019-02-21T11:26:21.494Z,1015.88
2019-02-21T11:27:21.494Z,1015.90
2019-02-21T11:28:21.489Z,1015.90
2019-02-21T11:29:21.491Z,1015.85
2019-02-21T11:30:21.484Z,1015.86
2019-02-21T11:31:21.481Z,1015.84
2019-02-21T11:32:21.481Z,1015.82
2019-02-21T11:33:21.476Z,1015.83
2019-02-21T11:34:21.472Z,1015.85
2019-02-21T11:35:21.468Z,1015.88
2019-02-21T11:36:21.466Z,1015.85
2019-02-21T11:37:21.463Z,1015.92
2019-02-21T11:38:21.459Z,1016.00
2019-02-21T11:39:21.459Z,1016.02
2019-02-21T11:40:21.462Z,1015.98
2019-02-21T11:41:21.457Z,1015.93
2019-02-21T11:42:21.447Z,1015.90
2019-02-21T11:43:21.446Z,1015.96
2019-02-21T11:44:21.443Z,1015.85
2019-02-21T11:45:21.446Z,1015.95
2019-02-21T11:46:21.451Z,1015.87
2019-02-21T11:47:21.436Z,1015.89
2019-02-21T11:48:21.432Z,1015.87
2019-02-21T11:49:21.429Z,1015.83
2019-02-21T11:50:21.426Z,1015.92
2019-02-21T11:51:21.424Z,1015.92
2019-02-21T11:52:21.427Z,1015.90
2019-02-21T11:53:21.419Z,1015.86
2019-02-21T11:54:27.019Z,1015.83
2019-02-21T11:55:21.418Z,1015.87
2019-02-21T11:56:21.412Z,1015.85
2019-02-21T11:57:21.411Z,1015.76
2019-02-21T11:58:21.407Z,1015.72
2019-02-21T11:59:21.406Z,1015.81
2019-02-21T12:00:21.405Z,1015.72
2019-02-21T12:01:21.405Z,1015.77
2019-02-21T12:02:21.413Z,1015.72
2019-02-21T12:03:21.506Z,1015.72
2019-02-21T12:04:21.394Z,1015.73
2019-02-21T12:05:30.478Z,1015.65